sensor_id;sensor_type;location;lat;lon;timestamp;P1;durP1;ratioP1;P2;durP2;ratioP2
19971;SDS011;10147;16.402;102.848;2022-07-23T00:01:50;199.90;;;36.40;;
19971;SDS011;10147;16.402;102.848;2022-07-23T00:04:21;202.20;;;34.28;;
19971;SDS011;10147;16.402;102.848;2022-07-23T00:06:51;173.90;;;32.83;;
19971;SDS011;10147;16.402;102.848;2022-07-23T00:09:22;168.75;;;33.47;;
19971;SDS011;10147;16.402;102.848;2022-07-23T00:11:52;246.98;;;38.08;;
19971;SDS011;10147;16.402;102.848;2022-07-23T00:14:23;207.80;;;35.85;;
19971;SDS011;10147;16.402;102.848;2022-07-23T00:16:53;251.10;;;34.65;;
19971;SDS011;10147;16.402;102.848;2022-07-23T00:19:24;177.55;;;37.15;;
19971;SDS011;10147;16.402;102.848;2022-07-23T00:21:54;222.05;;;35.00;;
19971;SDS011;10147;16.402;102.848;2022-07-23T00:24:24;131.98;;;32.25;;
19971;SDS011;10147;16.402;102.848;2022-07-23T00:26:54;173.32;;;38.78;;
19971;SDS011;10147;16.402;102.848;2022-07-23T00:29:25;175.73;;;40.65;;
19971;SDS011;10147;16.402;102.848;2022-07-23T00:31:55;249.55;;;43.17;;
19971;SDS011;10147;16.402;102.848;2022-07-23T00:34:26;173.50;;;42.33;;
19971;SDS011;10147;16.402;102.848;2022-07-23T00:36:56;184.77;;;49.53;;
19971;SDS011;10147;16.402;102.848;2022-07-23T00:39:26;171.02;;;46.22;;
19971;SDS011;10147;16.402;102.848;2022-07-23T00:41:56;214.57;;;42.15;;
19971;SDS011;10147;16.402;102.848;2022-07-23T00:44:27;206.55;;;52.13;;
19971;SDS011;10147;16.402;102.848;2022-07-23T00:46:58;172.70;;;43.63;;
19971;SDS011;10147;16.402;102.848;2022-07-23T00:49:29;189.07;;;41.22;;
19971;SDS011;10147;16.402;102.848;2022-07-23T00:52:01;332.63;;;40.38;;
19971;SDS011;10147;16.402;102.848;2022-07-23T00:54:32;234.88;;;33.50;;
19971;SDS011;10147;16.402;102.848;2022-07-23T00:57:02;200.45;;;36.80;;
19971;SDS011;10147;16.402;102.848;2022-07-23T00:59:33;293.67;;;36.65;;
19971;SDS011;10147;16.402;102.848;2022-07-23T01:02:03;295.70;;;31.65;;
19971;SDS011;10147;16.402;102.848;2022-07-23T01:04:34;327.23;;;56.95;;
19971;SDS011;10147;16.402;102.848;2022-07-23T01:07:04;326.58;;;42.33;;
19971;SDS011;10147;16.402;102.848;2022-07-23T01:09:34;230.77;;;32.72;;
19971;SDS011;10147;16.402;102.848;2022-07-23T01:12:05;256.77;;;34.53;;
19971;SDS011;10147;16.402;102.848;2022-07-23T01:14:36;263.45;;;43.78;;
19971;SDS011;10147;16.402;102.848;2022-07-23T01:17:07;293.13;;;30.67;;
19971;SDS011;10147;16.402;102.848;2022-07-23T01:19:37;313.20;;;38.47;;
19971;SDS011;10147;16.402;102.848;2022-07-23T01:22:08;200.40;;;31.23;;
19971;SDS011;10147;16.402;102.848;2022-07-23T01:24:40;315.55;;;41.08;;
19971;SDS011;10147;16.402;102.848;2022-07-23T01:27:10;191.50;;;29.90;;
19971;SDS011;10147;16.402;102.848;2022-07-23T01:29:42;315.90;;;45.55;;
19971;SDS011;10147;16.402;102.848;2022-07-23T01:32:17;291.27;;;50.42;;
19971;SDS011;10147;16.402;102.848;2022-07-23T01:34:47;407.35;;;72.70;;
19971;SDS011;10147;16.402;102.848;2022-07-23T01:37:18;263.48;;;35.50;;
19971;SDS011;10147;16.402;102.848;2022-07-23T01:39:49;311.27;;;36.85;;
19971;SDS011;10147;16.402;102.848;2022-07-23T01:42:19;314.75;;;42.75;;
19971;SDS011;10147;16.402;102.848;2022-07-23T01:44:50;491.25;;;96.65;;
19971;SDS011;10147;16.402;102.848;2022-07-23T01:47:21;584.95;;;124.70;;
19971;SDS011;10147;16.402;102.848;2022-07-23T01:49:54;444.58;;;75.32;;
19971;SDS011;10147;16.402;102.848;2022-07-23T01:52:44;553.70;;;113.35;;
19971;SDS011;10147;16.402;102.848;2022-07-23T01:55:14;439.23;;;104.85;;
19971;SDS011;10147;16.402;102.848;2022-07-23T01:57:48;340.85;;;62.67;;
19971;SDS011;10147;16.402;102.848;2022-07-23T02:00:21;202.52;;;39.00;;
19971;SDS011;10147;16.402;102.848;2022-07-23T02:02:52;405.08;;;54.75;;
19971;SDS011;10147;16.402;102.848;2022-07-23T02:05:22;303.25;;;54.72;;
19971;SDS011;10147;16.402;102.848;2022-07-23T02:07:52;317.08;;;39.85;;
19971;SDS011;10147;16.402;102.848;2022-07-23T02:10:23;372.38;;;72.00;;
19971;SDS011;10147;16.402;102.848;2022-07-23T02:12:54;427.23;;;98.07;;
19971;SDS011;10147;16.402;102.848;2022-07-23T02:15:25;278.95;;;50.25;;
19971;SDS011;10147;16.402;102.848;2022-07-23T02:17:58;800.92;;;207.82;;
19971;SDS011;10147;16.402;102.848;2022-07-23T02:20:30;480.30;;;120.38;;
19971;SDS011;10147;16.402;102.848;2022-07-23T02:23:01;534.53;;;99.20;;
19971;SDS011;10147;16.402;102.848;2022-07-23T02:25:32;1999.90;;;630.53;;
19971;SDS011;10147;16.402;102.848;2022-07-23T02:28:02;931.17;;;222.45;;
19971;SDS011;10147;16.402;102.848;2022-07-23T02:30:33;1373.07;;;391.30;;
19971;SDS011;10147;16.402;102.848;2022-07-23T02:33:04;854.10;;;202.23;;
19971;SDS011;10147;16.402;102.848;2022-07-23T02:35:35;420.40;;;97.82;;
19971;SDS011;10147;16.402;102.848;2022-07-23T02:38:07;508.45;;;176.27;;
19971;SDS011;10147;16.402;102.848;2022-07-23T02:40:37;1015.15;;;253.30;;
19971;SDS011;10147;16.402;102.848;2022-07-23T02:43:07;781.83;;;250.45;;
19971;SDS011;10147;16.402;102.848;2022-07-23T02:45:38;1999.90;;;507.48;;
19971;SDS011;10147;16.402;102.848;2022-07-23T02:48:09;1999.90;;;696.10;;
19971;SDS011;10147;16.402;102.848;2022-07-23T02:50:44;1296.63;;;476.40;;
19971;SDS011;10147;16.402;102.848;2022-07-23T02:53:18;1999.90;;;855.80;;
19971;SDS011;10147;16.402;102.848;2022-07-23T02:55:48;1777.97;;;543.08;;
19971;SDS011;10147;16.402;102.848;2022-07-23T02:58:20;1940.10;;;563.40;;
19971;SDS011;10147;16.402;102.848;2022-07-23T03:00:50;1999.90;;;734.85;;
19971;SDS011;10147;16.402;102.848;2022-07-23T03:03:21;1386.63;;;400.58;;
19971;SDS011;10147;16.402;102.848;2022-07-23T03:05:56;1999.90;;;575.75;;
19971;SDS011;10147;16.402;102.848;2022-07-23T03:08:26;1999.90;;;999.90;;
19971;SDS011;10147;16.402;102.848;2022-07-23T03:10:57;1999.90;;;368.27;;
19971;SDS011;10147;16.402;102.848;2022-07-23T03:13:27;1999.90;;;565.67;;
19971;SDS011;10147;16.402;102.848;2022-07-23T03:16:02;1999.90;;;636.63;;
19971;SDS011;10147;16.402;102.848;2022-07-23T03:18:35;1999.90;;;637.40;;
19971;SDS011;10147;16.402;102.848;2022-07-23T03:21:08;1999.90;;;999.90;;
19971;SDS011;10147;16.402;102.848;2022-07-23T03:23:38;1999.90;;;724.03;;
19971;SDS011;10147;16.402;102.848;2022-07-23T03:26:09;1500.13;;;431.13;;
19971;SDS011;10147;16.402;102.848;2022-07-23T03:28:41;1697.00;;;432.17;;
19971;SDS011;10147;16.402;102.848;2022-07-23T03:31:12;1989.07;;;314.10;;
19971;SDS011;10147;16.402;102.848;2022-07-23T03:33:42;1999.90;;;564.83;;
19971;SDS011;10147;16.402;102.848;2022-07-23T03:36:12;1999.90;;;999.90;;
19971;SDS011;10147;16.402;102.848;2022-07-23T03:38:45;1999.90;;;839.20;;
19971;SDS011;10147;16.402;102.848;2022-07-23T03:41:15;1843.05;;;798.47;;
19971;SDS011;10147;16.402;102.848;2022-07-23T03:43:45;1999.90;;;538.70;;
19971;SDS011;10147;16.402;102.848;2022-07-23T03:46:16;1999.90;;;999.90;;
19971;SDS011;10147;16.402;102.848;2022-07-23T03:48:46;1999.90;;;999.90;;
19971;SDS011;10147;16.402;102.848;2022-07-23T03:51:22;1999.90;;;999.90;;
19971;SDS011;10147;16.402;102.848;2022-07-23T03:53:53;1999.90;;;999.90;;
19971;SDS011;10147;16.402;102.848;2022-07-23T03:56:24;1999.90;;;999.90;;
19971;SDS011;10147;16.402;102.848;2022-07-23T03:58:55;1999.90;;;999.90;;
19971;SDS011;10147;16.402;102.848;2022-07-23T04:01:26;1999.90;;;999.90;;
19971;SDS011;10147;16.402;102.848;2022-07-23T04:03:58;1999.90;;;999.90;;
19971;SDS011;10147;16.402;102.848;2022-07-23T04:06:29;1999.90;;;999.90;;
19971;SDS011;10147;16.402;102.848;2022-07-23T04:08:59;1999.90;;;999.90;;
19971;SDS011;10147;16.402;102.848;2022-07-23T04:11:32;1999.90;;;999.90;;
19971;SDS011;10147;16.402;102.848;2022-07-23T04:14:02;1999.90;;;947.40;;
19971;SDS011;10147;16.402;102.848;2022-07-23T04:16:33;1999.90;;;999.90;;
19971;SDS011;10147;16.402;102.848;2022-07-23T04:19:03;1999.90;;;999.90;;
19971;SDS011;10147;16.402;102.848;2022-07-23T04:21:50;1999.90;;;999.90;;
19971;SDS011;10147;16.402;102.848;2022-07-23T04:24:20;1999.90;;;710.40;;
19971;SDS011;10147;16.402;102.848;2022-07-23T04:26:51;1999.90;;;999.90;;
19971;SDS011;10147;16.402;102.848;2022-07-23T04:29:21;1999.90;;;999.90;;
19971;SDS011;10147;16.402;102.848;2022-07-23T04:31:53;1999.90;;;999.90;;
19971;SDS011;10147;16.402;102.848;2022-07-23T04:34:23;1999.90;;;999.90;;
19971;SDS011;10147;16.402;102.848;2022-07-23T04:36:55;1999.90;;;999.90;;
19971;SDS011;10147;16.402;102.848;2022-07-23T04:39:28;1999.90;;;768.70;;
19971;SDS011;10147;16.402;102.848;2022-07-23T04:41:58;1999.90;;;957.22;;
19971;SDS011;10147;16.402;102.848;2022-07-23T04:44:31;1999.90;;;880.15;;
19971;SDS011;10147;16.402;102.848;2022-07-23T04:47:03;1999.90;;;860.72;;
19971;SDS011;10147;16.402;102.848;2022-07-23T04:49:34;1999.90;;;903.08;;
19971;SDS011;10147;16.402;102.848;2022-07-23T04:52:04;1999.90;;;999.90;;
19971;SDS011;10147;16.402;102.848;2022-07-23T04:54:36;1999.90;;;999.90;;
19971;SDS011;10147;16.402;102.848;2022-07-23T04:57:06;1999.90;;;999.90;;
19971;SDS011;10147;16.402;102.848;2022-07-23T04:59:37;1999.90;;;999.90;;
19971;SDS011;10147;16.402;102.848;2022-07-23T05:02:08;1999.90;;;676.30;;
19971;SDS011;10147;16.402;102.848;2022-07-23T05:04:39;1999.90;;;999.90;;
19971;SDS011;10147;16.402;102.848;2022-07-23T05:07:11;1999.90;;;999.90;;
19971;SDS011;10147;16.402;102.848;2022-07-23T05:09:41;1999.90;;;999.90;;
19971;SDS011;10147;16.402;102.848;2022-07-23T05:12:12;1999.90;;;999.90;;
19971;SDS011;10147;16.402;102.848;2022-07-23T05:14:44;1999.90;;;999.90;;
19971;SDS011;10147;16.402;102.848;2022-07-23T05:17:14;1999.90;;;999.90;;
19971;SDS011;10147;16.402;102.848;2022-07-23T05:19:44;1999.90;;;999.90;;
19971;SDS011;10147;16.402;102.848;2022-07-23T05:22:15;1999.90;;;999.90;;
19971;SDS011;10147;16.402;102.848;2022-07-23T05:24:46;1999.90;;;999.90;;
19971;SDS011;10147;16.402;102.848;2022-07-23T05:27:17;1999.90;;;999.90;;
19971;SDS011;10147;16.402;102.848;2022-07-23T05:29:47;1999.90;;;999.90;;
19971;SDS011;10147;16.402;102.848;2022-07-23T05:32:20;1999.90;;;999.90;;
19971;SDS011;10147;16.402;102.848;2022-07-23T05:35:03;1459.75;;;531.03;;
19971;SDS011;10147;16.402;102.848;2022-07-23T05:37:38;1999.90;;;999.90;;
19971;SDS011;10147;16.402;102.848;2022-07-23T05:40:09;1999.90;;;999.90;;
19971;SDS011;10147;16.402;102.848;2022-07-23T05:42:40;1999.90;;;999.90;;
19971;SDS011;10147;16.402;102.848;2022-07-23T05:45:13;1999.90;;;999.90;;
19971;SDS011;10147;16.402;102.848;2022-07-23T05:47:48;1999.90;;;999.90;;
19971;SDS011;10147;16.402;102.848;2022-07-23T05:50:26;1999.90;;;999.90;;
19971;SDS011;10147;16.402;102.848;2022-07-23T05:53:04;1999.90;;;999.90;;
19971;SDS011;10147;16.402;102.848;2022-07-23T05:55:54;1999.90;;;849.50;;
19971;SDS011;10147;16.402;102.848;2022-07-23T05:58:24;1999.90;;;999.90;;
19971;SDS011;10147;16.402;102.848;2022-07-23T06:00:54;1999.90;;;733.67;;
19971;SDS011;10147;16.402;102.848;2022-07-23T06:03:27;1999.90;;;841.72;;
19971;SDS011;10147;16.402;102.848;2022-07-23T06:05:58;1975.18;;;723.55;;
19971;SDS011;10147;16.402;102.848;2022-07-23T06:08:28;1999.90;;;897.50;;
19971;SDS011;10147;16.402;102.848;2022-07-23T06:10:59;1999.90;;;999.90;;
19971;SDS011;10147;16.402;102.848;2022-07-23T06:13:29;1999.90;;;999.90;;
19971;SDS011;10147;16.402;102.848;2022-07-23T06:16:00;1297.93;;;273.58;;
19971;SDS011;10147;16.402;102.848;2022-07-23T06:18:31;422.77;;;50.45;;
19971;SDS011;10147;16.402;102.848;2022-07-23T06:21:01;593.70;;;85.25;;
19971;SDS011;10147;16.402;102.848;2022-07-23T06:23:51;365.00;;;43.30;;
19971;SDS011;10147;16.402;102.848;2022-07-23T06:26:23;198.85;;;31.10;;
19971;SDS011;10147;16.402;102.848;2022-07-23T06:28:53;283.33;;;45.63;;
19971;SDS011;10147;16.402;102.848;2022-07-23T06:31:25;257.67;;;45.33;;
19971;SDS011;10147;16.402;102.848;2022-07-23T06:33:57;168.20;;;40.80;;
19971;SDS011;10147;16.402;102.848;2022-07-23T06:36:27;437.23;;;88.50;;
19971;SDS011;10147;16.402;102.848;2022-07-23T06:38:57;226.30;;;33.70;;
19971;SDS011;10147;16.402;102.848;2022-07-23T06:41:28;234.13;;;35.28;;
19971;SDS011;10147;16.402;102.848;2022-07-23T06:43:59;299.40;;;35.30;;
19971;SDS011;10147;16.402;102.848;2022-07-23T06:46:31;286.65;;;35.80;;
19971;SDS011;10147;16.402;102.848;2022-07-23T06:49:02;288.33;;;35.97;;
19971;SDS011;10147;16.402;102.848;2022-07-23T06:51:34;226.57;;;31.33;;
19971;SDS011;10147;16.402;102.848;2022-07-23T06:54:04;310.25;;;39.75;;
19971;SDS011;10147;16.402;102.848;2022-07-23T06:56:35;306.33;;;43.28;;
19971;SDS011;10147;16.402;102.848;2022-07-23T06:59:05;177.27;;;40.03;;
19971;SDS011;10147;16.402;102.848;2022-07-23T07:01:36;296.90;;;32.10;;
19971;SDS011;10147;16.402;102.848;2022-07-23T07:04:06;310.63;;;41.63;;
19971;SDS011;10147;16.402;102.848;2022-07-23T07:06:36;311.45;;;36.55;;
19971;SDS011;10147;16.402;102.848;2022-07-23T07:09:07;321.58;;;42.90;;
19971;SDS011;10147;16.402;102.848;2022-07-23T07:11:37;441.52;;;67.68;;
19971;SDS011;10147;16.402;102.848;2022-07-23T07:14:07;138.45;;;32.08;;
19971;SDS011;10147;16.402;102.848;2022-07-23T07:16:38;293.45;;;35.00;;
19971;SDS011;10147;16.402;102.848;2022-07-23T07:19:08;195.40;;;33.03;;
19971;SDS011;10147;16.402;102.848;2022-07-23T07:21:39;427.90;;;72.93;;
19971;SDS011;10147;16.402;102.848;2022-07-23T07:24:09;219.82;;;36.15;;
19971;SDS011;10147;16.402;102.848;2022-07-23T07:26:40;275.73;;;36.45;;
19971;SDS011;10147;16.402;102.848;2022-07-23T07:29:10;308.58;;;33.30;;
19971;SDS011;10147;16.402;102.848;2022-07-23T07:31:40;235.05;;;54.55;;
19971;SDS011;10147;16.402;102.848;2022-07-23T07:34:11;177.75;;;31.02;;
19971;SDS011;10147;16.402;102.848;2022-07-23T07:36:43;528.28;;;132.48;;
19971;SDS011;10147;16.402;102.848;2022-07-23T07:39:14;1028.28;;;267.13;;
19971;SDS011;10147;16.402;102.848;2022-07-23T07:41:44;1199.13;;;224.02;;
19971;SDS011;10147;16.402;102.848;2022-07-23T07:44:15;447.65;;;118.78;;
19971;SDS011;10147;16.402;102.848;2022-07-23T07:46:45;420.85;;;78.20;;
19971;SDS011;10147;16.402;102.848;2022-07-23T07:49:16;1999.90;;;816.22;;
19971;SDS011;10147;16.402;102.848;2022-07-23T07:51:48;1999.90;;;426.95;;
19971;SDS011;10147;16.402;102.848;2022-07-23T07:54:19;1933.63;;;324.50;;
19971;SDS011;10147;16.402;102.848;2022-07-23T07:56:49;1999.90;;;999.90;;
19971;SDS011;10147;16.402;102.848;2022-07-23T07:59:19;1999.90;;;999.90;;
19971;SDS011;10147;16.402;102.848;2022-07-23T08:01:51;1999.90;;;999.90;;
19971;SDS011;10147;16.402;102.848;2022-07-23T08:04:21;1999.90;;;750.75;;
19971;SDS011;10147;16.402;102.848;2022-07-23T08:06:51;1999.90;;;999.90;;
19971;SDS011;10147;16.402;102.848;2022-07-23T08:09:22;1999.90;;;999.90;;
19971;SDS011;10147;16.402;102.848;2022-07-23T08:11:52;1999.90;;;440.33;;
19971;SDS011;10147;16.402;102.848;2022-07-23T08:14:22;1999.90;;;999.90;;
19971;SDS011;10147;16.402;102.848;2022-07-23T08:16:52;1740.65;;;774.35;;
19971;SDS011;10147;16.402;102.848;2022-07-23T08:19:40;1533.05;;;239.43;;
19971;SDS011;10147;16.402;102.848;2022-07-23T08:22:12;1755.47;;;789.53;;
19971;SDS011;10147;16.402;102.848;2022-07-23T08:24:42;1999.90;;;612.08;;
19971;SDS011;10147;16.402;102.848;2022-07-23T08:27:12;1999.90;;;849.80;;
19971;SDS011;10147;16.402;102.848;2022-07-23T08:29:42;1999.90;;;999.90;;
19971;SDS011;10147;16.402;102.848;2022-07-23T08:32:14;1999.90;;;999.90;;
19971;SDS011;10147;16.402;102.848;2022-07-23T08:35:05;1973.60;;;343.27;;
19971;SDS011;10147;16.402;102.848;2022-07-23T08:37:35;1999.90;;;999.90;;
19971;SDS011;10147;16.402;102.848;2022-07-23T08:40:06;1691.57;;;774.55;;
19971;SDS011;10147;16.402;102.848;2022-07-23T08:42:36;1999.90;;;999.90;;
19971;SDS011;10147;16.402;102.848;2022-07-23T08:45:07;1999.90;;;820.92;;
19971;SDS011;10147;16.402;102.848;2022-07-23T08:47:39;1999.90;;;999.90;;
19971;SDS011;10147;16.402;102.848;2022-07-23T08:50:12;1999.90;;;999.90;;
19971;SDS011;10147;16.402;102.848;2022-07-23T08:52:42;1999.90;;;999.90;;
19971;SDS011;10147;16.402;102.848;2022-07-23T08:55:15;1999.90;;;999.90;;
19971;SDS011;10147;16.402;102.848;2022-07-23T08:57:47;1999.90;;;999.90;;
19971;SDS011;10147;16.402;102.848;2022-07-23T09:00:19;1999.90;;;999.90;;
19971;SDS011;10147;16.402;102.848;2022-07-23T09:02:49;1999.90;;;999.90;;
19971;SDS011;10147;16.402;102.848;2022-07-23T09:05:20;1999.90;;;999.90;;
19971;SDS011;10147;16.402;102.848;2022-07-23T09:10:51;1889.93;;;190.30;;
19971;SDS011;10147;16.402;102.848;2022-07-23T09:16:16;1999.90;;;999.90;;
19971;SDS011;10147;16.402;102.848;2022-07-23T09:18:49;1999.90;;;999.90;;
19971;SDS011;10147;16.402;102.848;2022-07-23T09:21:26;1655.50;;;759.97;;
19971;SDS011;10147;16.402;102.848;2022-07-23T09:24:01;1894.90;;;781.47;;
19971;SDS011;10147;16.402;102.848;2022-07-23T09:26:43;1248.57;;;520.60;;
19971;SDS011;10147;16.402;102.848;2022-07-23T09:29:17;1999.90;;;999.90;;
19971;SDS011;10147;16.402;102.848;2022-07-23T09:31:58;1999.90;;;754.75;;
19971;SDS011;10147;16.402;102.848;2022-07-23T09:34:29;1799.97;;;784.85;;
19971;SDS011;10147;16.402;102.848;2022-07-23T09:37:14;1999.90;;;999.90;;
19971;SDS011;10147;16.402;102.848;2022-07-23T09:39:45;1999.90;;;999.90;;
19971;SDS011;10147;16.402;102.848;2022-07-23T09:42:20;1999.90;;;999.90;;
19971;SDS011;10147;16.402;102.848;2022-07-23T09:44:51;1999.90;;;999.90;;
19971;SDS011;10147;16.402;102.848;2022-07-23T09:47:24;1999.90;;;999.90;;
19971;SDS011;10147;16.402;102.848;2022-07-23T09:49:58;1999.90;;;999.90;;
19971;SDS011;10147;16.402;102.848;2022-07-23T09:52:32;1895.18;;;808.05;;
19971;SDS011;10147;16.402;102.848;2022-07-23T09:55:04;1999.90;;;999.90;;
19971;SDS011;10147;16.402;102.848;2022-07-23T09:57:35;1999.90;;;999.90;;
19971;SDS011;10147;16.402;102.848;2022-07-23T10:00:06;1999.90;;;802.88;;
19971;SDS011;10147;16.402;102.848;2022-07-23T10:02:38;1827.65;;;237.55;;
19971;SDS011;10147;16.402;102.848;2022-07-23T10:05:29;1999.90;;;999.90;;
19971;SDS011;10147;16.402;102.848;2022-07-23T10:08:19;1999.90;;;999.90;;
19971;SDS011;10147;16.402;102.848;2022-07-23T10:11:10;1741.93;;;770.10;;
19971;SDS011;10147;16.402;102.848;2022-07-23T10:13:53;1852.88;;;778.25;;
19971;SDS011;10147;16.402;102.848;2022-07-23T10:16:32;1535.07;;;84.18;;
19971;SDS011;10147;16.402;102.848;2022-07-23T10:19:02;1664.45;;;103.40;;
19971;SDS011;10147;16.402;102.848;2022-07-23T10:27:26;1999.90;;;560.10;;
19971;SDS011;10147;16.402;102.848;2022-07-23T10:30:05;1999.90;;;677.65;;
19971;SDS011;10147;16.402;102.848;2022-07-23T10:32:49;1956.70;;;188.93;;
19971;SDS011;10147;16.402;102.848;2022-07-23T10:38:13;1999.90;;;518.03;;
19971;SDS011;10147;16.402;102.848;2022-07-23T10:40:55;1999.90;;;172.45;;
19971;SDS011;10147;16.402;102.848;2022-07-23T10:43:26;788.65;;;321.67;;
19971;SDS011;10147;16.402;102.848;2022-07-23T10:48:50;1487.15;;;216.40;;
19971;SDS011;10147;16.402;102.848;2022-07-23T10:54:43;1999.90;;;999.90;;
19971;SDS011;10147;16.402;102.848;2022-07-23T10:57:13;1999.90;;;386.90;;
19971;SDS011;10147;16.402;102.848;2022-07-23T11:02:41;1999.90;;;500.95;;
19971;SDS011;10147;16.402;102.848;2022-07-23T11:05:16;1999.90;;;448.77;;
19971;SDS011;10147;16.402;102.848;2022-07-23T11:10:53;1928.00;;;582.05;;
19971;SDS011;10147;16.402;102.848;2022-07-23T11:13:26;1999.90;;;869.85;;
19971;SDS011;10147;16.402;102.848;2022-07-23T11:18:55;1999.90;;;714.80;;
19971;SDS011;10147;16.402;102.848;2022-07-23T11:24:16;1999.90;;;562.22;;
19971;SDS011;10147;16.402;102.848;2022-07-23T11:26:50;1987.43;;;644.83;;
19971;SDS011;10147;16.402;102.848;2022-07-23T11:32:18;1101.32;;;317.83;;
19971;SDS011;10147;16.402;102.848;2022-07-23T11:34:49;1999.90;;;564.45;;
19971;SDS011;10147;16.402;102.848;2022-07-23T11:37:37;1999.90;;;553.65;;
19971;SDS011;10147;16.402;102.848;2022-07-23T11:40:11;1999.90;;;613.03;;
19971;SDS011;10147;16.402;102.848;2022-07-23T11:42:56;1999.90;;;585.92;;
19971;SDS011;10147;16.402;102.848;2022-07-23T11:45:42;1953.30;;;514.13;;
19971;SDS011;10147;16.402;102.848;2022-07-23T11:51:07;1675.70;;;479.80;;
19971;SDS011;10147;16.402;102.848;2022-07-23T11:53:38;964.10;;;244.27;;
19971;SDS011;10147;16.402;102.848;2022-07-23T11:56:10;604.28;;;147.50;;
19971;SDS011;10147;16.402;102.848;2022-07-23T11:58:40;1020.13;;;241.15;;
19971;SDS011;10147;16.402;102.848;2022-07-23T12:01:23;684.90;;;220.95;;
19971;SDS011;10147;16.402;102.848;2022-07-23T12:03:54;538.40;;;175.77;;
19971;SDS011;10147;16.402;102.848;2022-07-23T12:06:24;532.28;;;163.02;;
19971;SDS011;10147;16.402;102.848;2022-07-23T12:08:55;709.97;;;157.57;;
19971;SDS011;10147;16.402;102.848;2022-07-23T12:11:25;482.35;;;98.20;;
19971;SDS011;10147;16.402;102.848;2022-07-23T12:13:56;614.72;;;129.55;;
19971;SDS011;10147;16.402;102.848;2022-07-23T12:16:27;481.75;;;109.65;;
19971;SDS011;10147;16.402;102.848;2022-07-23T12:18:58;539.38;;;109.18;;
19971;SDS011;10147;16.402;102.848;2022-07-23T12:21:28;317.92;;;35.72;;
19971;SDS011;10147;16.402;102.848;2022-07-23T12:24:06;400.38;;;61.60;;
19971;SDS011;10147;16.402;102.848;2022-07-23T12:26:36;273.83;;;44.78;;
19971;SDS011;10147;16.402;102.848;2022-07-23T12:29:07;294.38;;;36.60;;
19971;SDS011;10147;16.402;102.848;2022-07-23T12:31:37;414.75;;;54.17;;
19971;SDS011;10147;16.402;102.848;2022-07-23T12:34:15;349.10;;;64.15;;
19971;SDS011;10147;16.402;102.848;2022-07-23T12:36:45;400.98;;;73.63;;
19971;SDS011;10147;16.402;102.848;2022-07-23T12:39:29;416.10;;;68.70;;
19971;SDS011;10147;16.402;102.848;2022-07-23T12:41:59;280.38;;;42.05;;
19971;SDS011;10147;16.402;102.848;2022-07-23T12:44:30;314.20;;;37.80;;
19971;SDS011;10147;16.402;102.848;2022-07-23T12:47:05;317.88;;;37.78;;
19971;SDS011;10147;16.402;102.848;2022-07-23T12:49:36;350.00;;;41.97;;
19971;SDS011;10147;16.402;102.848;2022-07-23T12:52:15;284.13;;;40.03;;
19971;SDS011;10147;16.402;102.848;2022-07-23T12:54:46;248.05;;;30.25;;
19971;SDS011;10147;16.402;102.848;2022-07-23T12:57:16;224.50;;;36.20;;
19971;SDS011;10147;16.402;102.848;2022-07-23T12:59:47;283.00;;;35.28;;
19971;SDS011;10147;16.402;102.848;2022-07-23T13:02:17;236.35;;;33.78;;
19971;SDS011;10147;16.402;102.848;2022-07-23T13:04:48;249.27;;;35.08;;
19971;SDS011;10147;16.402;102.848;2022-07-23T13:07:18;314.38;;;41.60;;
19971;SDS011;10147;16.402;102.848;2022-07-23T13:09:49;192.65;;;49.17;;
19971;SDS011;10147;16.402;102.848;2022-07-23T13:12:19;274.33;;;36.83;;
19971;SDS011;10147;16.402;102.848;2022-07-23T13:14:50;312.67;;;41.30;;
19971;SDS011;10147;16.402;102.848;2022-07-23T13:17:20;209.85;;;39.85;;
19971;SDS011;10147;16.402;102.848;2022-07-23T13:19:51;222.30;;;36.42;;
19971;SDS011;10147;16.402;102.848;2022-07-23T13:22:22;227.93;;;35.90;;
19971;SDS011;10147;16.402;102.848;2022-07-23T13:24:53;186.95;;;36.17;;
19971;SDS011;10147;16.402;102.848;2022-07-23T13:27:24;260.23;;;40.40;;
19971;SDS011;10147;16.402;102.848;2022-07-23T13:29:54;229.93;;;47.90;;
19971;SDS011;10147;16.402;102.848;2022-07-23T13:32:25;172.15;;;45.53;;
19971;SDS011;10147;16.402;102.848;2022-07-23T13:34:55;171.45;;;43.25;;
19971;SDS011;10147;16.402;102.848;2022-07-23T13:37:25;322.58;;;54.25;;
19971;SDS011;10147;16.402;102.848;2022-07-23T13:39:56;214.90;;;44.20;;
19971;SDS011;10147;16.402;102.848;2022-07-23T13:42:27;231.35;;;44.53;;
19971;SDS011;10147;16.402;102.848;2022-07-23T13:44:58;222.45;;;51.63;;
19971;SDS011;10147;16.402;102.848;2022-07-23T13:47:30;149.40;;;47.63;;
19971;SDS011;10147;16.402;102.848;2022-07-23T13:50:01;180.95;;;43.42;;
19971;SDS011;10147;16.402;102.848;2022-07-23T13:52:32;199.55;;;51.60;;
19971;SDS011;10147;16.402;102.848;2022-07-23T13:55:04;138.60;;;44.42;;
19971;SDS011;10147;16.402;102.848;2022-07-23T13:57:35;150.02;;;47.78;;
19971;SDS011;10147;16.402;102.848;2022-07-23T14:00:07;231.18;;;50.83;;
19971;SDS011;10147;16.402;102.848;2022-07-23T14:02:58;223.80;;;37.90;;
19971;SDS011;10147;16.402;102.848;2022-07-23T14:05:29;241.85;;;36.58;;
19971;SDS011;10147;16.402;102.848;2022-07-23T14:08:00;166.82;;;37.10;;
19971;SDS011;10147;16.402;102.848;2022-07-23T14:10:31;297.45;;;51.90;;
19971;SDS011;10147;16.402;102.848;2022-07-23T14:13:04;230.95;;;54.13;;
19971;SDS011;10147;16.402;102.848;2022-07-23T14:15:36;186.38;;;54.13;;
19971;SDS011;10147;16.402;102.848;2022-07-23T14:18:09;165.98;;;45.95;;
19971;SDS011;10147;16.402;102.848;2022-07-23T14:20:40;120.05;;;38.03;;
19971;SDS011;10147;16.402;102.848;2022-07-23T14:23:10;203.20;;;35.42;;
19971;SDS011;10147;16.402;102.848;2022-07-23T14:25:41;183.45;;;43.55;;
19971;SDS011;10147;16.402;102.848;2022-07-23T14:28:13;183.60;;;56.60;;
19971;SDS011;10147;16.402;102.848;2022-07-23T14:30:47;254.88;;;63.17;;
19971;SDS011;10147;16.402;102.848;2022-07-23T14:33:17;216.88;;;57.58;;
19971;SDS011;10147;16.402;102.848;2022-07-23T14:35:48;250.93;;;60.80;;
19971;SDS011;10147;16.402;102.848;2022-07-23T14:38:18;225.55;;;44.38;;